Time;durP1;ratioP1;P1;durP2;ratioP2;P2;SDS_P1;SDS_P2;PMS_P1;PMS_P2;Temp;Humidity;BMP_temperature;BMP_pressure;BME280_temperature;BME280_humidity;BME280_pressure;Samples;Min_cycle;Max_cycle;Signal;HPM_P1;HPM_P2
2023/04/12 00:01:56;;;;;;;10.88;2.45;;;8.60;99.00;;;;;;6157592;23;20389;-88
2023/04/12 00:04:26;;;;;;;10.82;2.55;;;8.50;98.50;;;;;;6158764;23;20137;-87
2023/04/12 00:06:53;;;;;;;9.52;2.22;;;8.50;98.30;;;;;;6158989;23;20405;-89
2023/04/12 00:09:19;;;;;;;10.55;2.15;;;8.60;98.50;;;;;;6184353;23;20012;-88
2023/04/12 00:11:45;;;;;;;12.00;2.50;;;8.50;98.50;;;;;;6158862;23;20020;-88
2023/04/12 00:14:11;;;;;;;9.07;1.98;;;8.60;99.00;;;;;;6185399;23;20088;-88
2023/04/12 00:16:37;;;;;;;10.38;2.40;;;8.50;99.20;;;;;;6184183;23;20442;-88
2023/04/12 00:19:04;;;;;;;11.27;2.30;;;8.60;99.40;;;;;;6185220;23;20096;-88
2023/04/12 00:21:29;;;;;;;8.30;2.15;;;8.50;99.60;;;;;;6185376;23;20024;-89
2023/04/12 00:23:55;;;;;;;8.30;2.35;;;8.60;99.70;;;;;;6184153;23;20015;-88
2023/04/12 00:26:21;;;;;;;13.15;3.08;;;8.60;99.60;;;;;;6158599;23;20100;-88
2023/04/12 00:28:47;;;;;;;9.23;2.30;;;8.60;99.50;;;;;;6185199;23;20079;-88
2023/04/12 00:31:12;;;;;;;8.98;2.00;;;8.50;99.50;;;;;;6159893;23;20027;-88
2023/04/12 00:33:38;;;;;;;8.88;2.30;;;8.60;99.60;;;;;;6186981;23;20099;-89
2023/04/12 00:36:04;;;;;;;9.10;2.15;;;8.60;99.40;;;;;;6161540;23;20048;-88
2023/04/12 00:38:32;;;;;;;11.02;2.65;;;8.50;99.20;;;;;;6186352;23;20021;-89
2023/04/12 00:40:59;;;;;;;10.20;2.22;;;8.50;98.80;;;;;;6187744;23;20024;-89
2023/04/12 00:43:26;;;;;;;10.50;2.42;;;8.60;99.00;;;;;;6160569;23;20017;-88
2023/04/12 00:45:55;;;;;;;9.95;2.40;;;8.60;98.90;;;;;;6159475;23;20216;-88
2023/04/12 00:48:22;;;;;;;10.77;2.45;;;8.60;98.80;;;;;;6187310;23;20099;-88
2023/04/12 00:50:48;;;;;;;14.63;2.55;;;8.60;98.90;;;;;;6159581;23;20433;-88
2023/04/12 00:53:14;;;;;;;9.10;2.20;;;8.60;98.80;;;;;;6187054;23;20063;-88
2023/04/12 00:55:44;;;;;;;10.48;2.60;;;8.60;98.60;;;;;;6187065;23;20013;-88
2023/04/12 00:58:10;;;;;;;8.77;2.38;;;8.60;98.60;;;;;;6185990;23;20446;-88
2023/04/12 01:00:36;;;;;;;10.80;2.30;;;8.60;99.20;;;;;;6186492;23;20028;-88
2023/04/12 01:03:04;;;;;;;9.70;2.10;;;8.60;98.90;;;;;;6187275;23;20021;-88
2023/04/12 01:05:35;;;;;;;11.05;2.17;;;8.60;98.90;;;;;;6186131;23;20315;-88
2023/04/12 01:08:39;;;;;;;9.60;2.40;;;8.60;99.00;;;;;;6160061;23;20024;-88
2023/04/12 01:11:28;;;;;;;10.07;2.30;;;8.60;99.10;;;;;;6154095;23;20349;-88
2023/04/12 01:14:02;;;;;;;10.88;2.55;;;8.60;99.20;;;;;;6185331;23;20024;-88
2023/04/12 01:16:36;;;;;;;10.50;2.58;;;8.60;99.20;;;;;;6187173;23;20048;-88
2023/04/12 01:19:21;;;;;;;10.18;2.40;;;8.60;99.20;;;;;;6185950;23;20021;-88
2023/04/12 01:22:10;;;;;;;11.23;2.60;;;8.70;99.40;;;;;;6186221;23;20389;-88
2023/04/12 01:25:01;;;;;;;10.85;2.38;;;8.60;99.60;;;;;;6160572;23;20017;-88
2023/04/12 01:27:27;;;;;;;10.85;2.50;;;8.60;99.80;;;;;;6159379;23;20337;-88
2023/04/12 01:29:55;;;;;;;9.35;2.50;;;8.70;99.80;;;;;;6159991;23;20092;-89
2023/04/12 01:32:21;;;;;;;8.65;2.17;;;8.70;99.90;;;;;;6160065;23;20021;-88
2023/04/12 01:34:46;;;;;;;11.98;2.40;;;8.70;99.90;;;;;;6159316;23;20021;-88
2023/04/12 01:37:15;;;;;;;11.63;2.40;;;8.70;99.90;;;;;;6160124;23;20100;-87
2023/04/12 01:39:41;;;;;;;8.35;2.33;;;8.70;99.90;;;;;;6160166;23;20096;-88
2023/04/12 01:42:07;;;;;;;11.45;2.40;;;8.70;99.90;;;;;;6185211;23;20442;-88
2023/04/12 01:44:32;;;;;;;9.00;2.22;;;8.70;99.90;;;;;;6159781;23;20103;-89
2023/04/12 01:46:58;;;;;;;13.00;2.20;;;8.70;99.90;;;;;;6159420;23;20104;-88
2023/04/12 01:49:28;;;;;;;9.13;2.30;;;8.80;99.90;;;;;;6160382;23;20044;-88
2023/04/12 01:52:10;;;;;;;8.68;2.55;;;8.80;99.90;;;;;;6185820;23;20505;-89
2023/04/12 01:54:40;;;;;;;10.13;2.00;;;8.80;99.90;;;;;;6158979;23;20021;-88
2023/04/12 01:57:07;;;;;;;9.73;2.20;;;8.80;99.90;;;;;;6186631;23;20326;-89
2023/04/12 01:59:40;;;;;;;8.85;2.03;;;8.80;99.90;;;;;;6186016;23;20021;-88
2023/04/12 02:02:07;;;;;;;7.38;2.08;;;8.80;99.90;;;;;;6159586;23;20122;-87
2023/04/12 02:04:35;;;;;;;8.63;1.98;;;8.80;99.90;;;;;;6186231;23;20023;-88
2023/04/12 02:07:04;;;;;;;10.20;1.70;;;8.80;99.90;;;;;;6159878;23;20029;-88
2023/04/12 02:09:35;;;;;;;8.90;1.77;;;8.80;99.90;;;;;;6185411;23;20009;-88
2023/04/12 02:12:00;;;;;;;11.88;2.30;;;8.80;99.90;;;;;;6186708;23;20021;-89
2023/04/12 02:14:26;;;;;;;8.48;2.10;;;8.90;99.90;;;;;;6186417;23;20024;-87
2023/04/12 02:16:54;;;;;;;12.45;1.85;;;8.80;99.90;;;;;;6185035;23;20476;-89
2023/04/12 02:19:20;;;;;;;7.57;1.80;;;8.80;99.90;;;;;;6159775;23;20028;-88
2023/04/12 02:21:45;;;;;;;10.00;2.00;;;8.80;99.90;;;;;;6186100;23;20013;-88
2023/04/12 02:24:11;;;;;;;12.07;2.30;;;8.80;99.90;;;;;;6185495;23;20067;-88
2023/04/12 02:26:38;;;;;;;8.10;1.80;;;8.80;99.90;;;;;;6186173;23;20020;-88
2023/04/12 02:29:08;;;;;;;8.93;2.05;;;8.80;99.90;;;;;;6159729;23;20437;-87
2023/04/12 02:31:35;;;;;;;9.07;2.03;;;8.90;99.90;;;;;;6185642;23;20032;-88
2023/04/12 02:34:02;;;;;;;6.40;1.80;;;8.80;99.90;;;;;;6186278;23;20055;-88
2023/04/12 02:36:28;;;;;;;9.30;2.30;;;8.90;99.90;;;;;;6159006;23;20021;-88
2023/04/12 02:38:54;;;;;;;10.82;2.17;;;8.80;99.90;;;;;;6159158;23;20068;-88
2023/04/12 02:41:21;;;;;;;9.88;1.85;;;8.80;99.90;;;;;;6159637;23;20072;-88
2023/04/12 02:43:47;;;;;;;9.85;2.00;;;8.80;99.90;;;;;;6158482;23;20023;-87
2023/04/12 02:46:22;;;;;;;11.63;2.17;;;8.80;99.90;;;;;;6159424;23;20017;-87
2023/04/12 02:48:48;;;;;;;7.93;1.50;;;8.80;99.90;;;;;;6159352;23;20338;-87
2023/04/12 02:51:14;;;;;;;8.13;1.80;;;8.80;99.90;;;;;;6158457;23;20088;-88
2023/04/12 02:53:43;;;;;;;7.85;1.63;;;8.80;99.90;;;;;;6185375;23;20048;-89
2023/04/12 02:56:08;;;;;;;8.00;1.70;;;8.80;99.90;;;;;;6159914;23;20341;-88
2023/04/12 02:58:35;;;;;;;6.55;1.70;;;8.80;99.90;;;;;;6157894;23;20100;-89
2023/04/12 03:01:01;;;;;;;8.43;1.90;;;8.80;99.90;;;;;;6159134;23;20025;-88
2023/04/12 03:03:27;;;;;;;6.18;1.70;;;8.80;99.90;;;;;;6186000;23;20021;-88
2023/04/12 03:05:54;;;;;;;9.73;1.85;;;8.80;99.90;;;;;;6158337;23;20349;-88
2023/04/12 03:08:20;;;;;;;10.70;2.00;;;8.80;99.90;;;;;;6159344;23;20048;-88
2023/04/12 03:10:46;;;;;;;8.60;2.05;;;8.80;99.90;;;;;;6158975;23;20476;-88
2023/04/12 03:13:12;;;;;;;7.05;1.70;;;8.80;99.90;;;;;;6184601;23;20017;-88
2023/04/12 03:15:38;;;;;;;7.20;1.60;;;8.80;99.90;;;;;;6159460;23;20028;-88
2023/04/12 03:18:04;;;;;;;8.80;1.83;;;8.70;99.90;;;;;;6185942;23;20015;-89
2023/04/12 03:20:30;;;;;;;6.72;1.58;;;8.80;99.90;;;;;;6184927;23;20023;-88
2023/04/12 03:22:56;;;;;;;6.45;1.58;;;8.80;99.90;;;;;;6159175;23;20387;-88
2023/04/12 03:25:24;;;;;;;8.38;1.75;;;8.70;99.90;;;;;;6185857;23;20342;-88
2023/04/12 03:27:50;;;;;;;8.05;1.85;;;8.80;99.90;;;;;;6158984;23;20377;-87
2023/04/12 03:30:18;;;;;;;6.53;1.70;;;8.70;99.90;;;;;;6185070;23;20024;-88
2023/04/12 03:32:44;;;;;;;5.72;1.60;;;8.80;99.90;;;;;;6184667;23;20048;-89
2023/04/12 03:35:10;;;;;;;8.23;1.60;;;8.80;99.90;;;;;;6158923;23;20063;-87
2023/04/12 03:37:36;;;;;;;7.97;1.70;;;8.70;99.90;;;;;;6185418;23;20013;-88
2023/04/12 03:40:02;;;;;;;8.00;1.65;;;8.80;99.90;;;;;;6158535;23;20021;-88
2023/04/12 03:42:28;;;;;;;7.35;1.50;;;8.80;99.90;;;;;;6159005;23;20021;-88
2023/04/12 03:44:56;;;;;;;7.50;1.70;;;8.80;99.90;;;;;;6185470;23;20020;-88
2023/04/12 03:47:21;;;;;;;6.90;1.63;;;8.80;99.90;;;;;;6158452;23;20160;-89
2023/04/12 03:49:47;;;;;;;8.25;1.67;;;8.80;99.90;;;;;;6185479;23;20457;-88
2023/04/12 03:52:13;;;;;;;6.25;1.52;;;8.80;99.90;;;;;;6158899;23;20389;-88
2023/04/12 03:54:40;;;;;;;7.43;1.60;;;8.70;99.90;;;;;;6157418;23;20097;-88
2023/04/12 03:57:09;;;;;;;8.68;1.98;;;8.70;99.90;;;;;;6185681;23;20020;-89
2023/04/12 03:59:34;;;;;;;8.30;2.00;;;8.80;99.90;;;;;;6158502;23;20025;-88
2023/04/12 04:02:00;;;;;;;9.35;1.88;;;8.80;99.90;;;;;;6157935;23;20442;-89
2023/04/12 04:04:27;;;;;;;7.85;1.90;;;8.70;99.90;;;;;;6159229;23;20020;-89
2023/04/12 04:06:55;;;;;;;9.32;1.77;;;8.70;99.90;;;;;;6158876;23;20393;-88
2023/04/12 04:09:26;;;;;;;7.80;1.88;;;8.70;99.90;;;;;;6184601;23;20449;-88
2023/04/12 04:11:51;;;;;;;8.32;2.17;;;8.80;99.90;;;;;;6184937;23;20025;-88
2023/04/12 04:14:20;;;;;;;7.85;2.10;;;8.70;99.90;;;;;;6158880;23;20017;-90
2023/04/12 04:16:46;;;;;;;9.45;2.40;;;8.70;99.90;;;;;;6157474;23;20346;-88
2023/04/12 04:19:12;;;;;;;9.02;2.20;;;8.80;99.90;;;;;;6158895;23;20055;-89
2023/04/12 04:21:39;;;;;;;11.63;2.50;;;8.70;99.90;;;;;;6158459;23;20045;-88
2023/04/12 04:24:08;;;;;;;8.32;2.33;;;8.70;99.90;;;;;;6184860;23;20337;-89
2023/04/12 04:26:37;;;;;;;6.82;1.70;;;8.70;99.90;;;;;;6158980;23;20024;-89
2023/04/12 04:29:03;;;;;;;6.50;1.90;;;8.70;99.90;;;;;;6184331;23;20333;-89
2023/04/12 04:31:35;;;;;;;7.95;2.15;;;8.70;99.90;;;;;;6215296;23;20028;-89
2023/04/12 04:34:04;;;;;;;7.18;2.13;;;8.70;99.90;;;;;;6188870;23;20099;-89
2023/04/12 04:36:36;;;;;;;6.50;1.77;;;8.70;99.90;;;;;;6187495;23;20023;-88
2023/04/12 04:39:03;;;;;;;9.48;2.25;;;8.70;99.90;;;;;;6215425;23;20008;-90
2023/04/12 04:41:53;;;;;;;7.43;2.03;;;8.70;99.90;;;;;;6215196;23;20013;-90
2023/04/12 04:44:20;;;;;;;8.80;2.10;;;8.80;99.90;;;;;;6188051;23;20017;-90
2023/04/12 04:46:50;;;;;;;9.30;2.10;;;8.70;99.90;;;;;;6215186;23;20084;-89
2023/04/12 04:49:16;;;;;;;8.20;2.25;;;8.70;99.90;;;;;;6188353;23;20341;-89
2023/04/12 04:51:41;;;;;;;6.68;1.90;;;8.70;99.90;;;;;;6214302;23;20040;-90
2023/04/12 04:54:07;;;;;;;6.72;2.08;;;8.70;99.90;;;;;;6215275;23;20373;-90
2023/04/12 04:56:33;;;;;;;7.07;2.22;;;8.70;99.90;;;;;;6188371;23;20020;-90
2023/04/12 04:58:58;;;;;;;6.15;2.05;;;8.70;99.90;;;;;;6187615;23;20017;-90
2023/04/12 05:01:27;;;;;;;8.20;2.20;;;8.60;99.90;;;;;;6182839;23;20021;-93
2023/04/12 05:03:54;;;;;;;8.90;2.03;;;8.60;99.90;;;;;;6184542;23;20021;-92
2023/04/12 05:06:20;;;;;;;8.70;2.15;;;8.70;99.90;;;;;;6185476;23;20021;-90
2023/04/12 05:08:45;;;;;;;8.32;2.00;;;8.60;99.90;;;;;;6183785;23;20024;-91
2023/04/12 05:11:11;;;;;;;8.88;2.22;;;8.60;99.90;;;;;;6183135;23;20021;-91
2023/04/12 05:13:37;;;;;;;9.38;2.05;;;8.60;99.90;;;;;;6185357;23;20013;-93
2023/04/12 05:16:07;;;;;;;9.15;2.72;;;8.50;99.90;;;;;;6183618;23;20021;-91
2023/04/12 05:18:33;;;;;;;8.18;2.00;;;8.50;99.90;;;;;;6186035;23;20068;-91
2023/04/12 05:21:07;;;;;;;7.72;2.17;;;8.50;99.90;;;;;;6187381;23;20013;-91
2023/04/12 05:23:40;;;;;;;9.02;2.38;;;8.50;99.90;;;;;;6185063;23;20390;-91
2023/04/12 05:26:06;;;;;;;7.20;2.03;;;8.50;99.90;;;;;;6184591;23;20461;-91
2023/04/12 05:28:34;;;;;;;8.23;2.40;;;8.50;99.90;;;;;;6187020;23;20055;-92
2023/04/12 05:31:03;;;;;;;7.30;2.30;;;8.50;99.90;;;;;;6185622;23;20025;-91
2023/04/12 05:33:30;;;;;;;8.93;2.22;;;8.50;99.90;;;;;;6184996;23;20013;-91
2023/04/12 05:35:56;;;;;;;7.20;2.40;;;8.50;99.90;;;;;;6185283;23;20445;-91
2023/04/12 05:38:24;;;;;;;7.07;2.20;;;8.50;99.90;;;;;;6185713;23;20039;-91
2023/04/12 05:40:50;;;;;;;7.05;1.92;;;8.50;99.90;;;;;;6184452;23;20021;-91
2023/04/12 05:43:20;;;;;;;7.60;2.35;;;8.40;99.90;;;;;;6185924;23;20120;-91
2023/04/12 05:45:46;;;;;;;8.55;2.70;;;8.50;99.90;;;;;;6187323;23;20016;-92
2023/04/12 05:48:12;;;;;;;7.57;2.42;;;8.40;99.90;;;;;;6186389;23;20493;-91
2023/04/12 05:50:38;;;;;;;8.32;2.72;;;8.40;99.90;;;;;;6185070;23;20096;-90
2023/04/12 05:53:03;;;;;;;10.30;2.70;;;8.40;99.90;;;;;;6185300;23;20020;-91
2023/04/12 05:55:29;;;;;;;9.30;2.35;;;8.40;99.90;;;;;;6186220;23;20017;-90
2023/04/12 05:57:55;;;;;;;8.27;2.50;;;8.40;99.90;;;;;;6184806;23;20021;-89
2023/04/12 06:00:22;;;;;;;10.27;2.70;;;8.40;99.90;;;;;;6183874;23;20049;-90
2023/04/12 06:02:49;;;;;;;5.93;2.20;;;8.40;99.90;;;;;;6184537;23;20036;-89
2023/04/12 06:05:24;;;;;;;7.75;2.15;;;8.40;99.90;;;;;;6184960;23;20460;-90
2023/04/12 06:07:49;;;;;;;5.28;1.85;;;8.40;99.90;;;;;;6183625;23;20092;-93
2023/04/12 06:10:16;;;;;;;7.78;2.15;;;8.30;99.90;;;;;;6184899;23;20049;-90
2023/04/12 06:12:42;;;;;;;5.68;1.92;;;8.30;99.90;;;;;;6184964;23;20095;-90
2023/04/12 06:15:08;;;;;;;7.88;2.13;;;8.40;99.90;;;;;;6183772;23;20017;-90
2023/04/12 06:17:35;;;;;;;6.13;1.92;;;8.30;99.90;;;;;;6186334;23;20477;-89
2023/04/12 06:20:02;;;;;;;7.40;2.10;;;8.30;99.90;;;;;;6186353;23;20042;-90
2023/04/12 06:22:27;;;;;;;6.40;2.28;;;8.40;99.90;;;;;;6185535;23;20063;-91
2023/04/12 06:24:53;;;;;;;6.47;2.10;;;8.40;99.90;;;;;;6184156;23;20013;-92
2023/04/12 06:27:19;;;;;;;6.88;2.10;;;8.30;99.90;;;;;;6186419;23;20068;-88
2023/04/12 06:29:45;;;;;;;6.82;2.00;;;8.30;99.90;;;;;;6183442;23;20057;-88
2023/04/12 06:32:11;;;;;;;7.70;2.10;;;8.30;99.90;;;;;;6184704;23;20028;-89
2023/04/12 06:34:36;;;;;;;9.13;2.10;;;8.30;99.90;;;;;;6184159;23;20021;-89
2023/04/12 06:37:02;;;;;;;8.18;1.98;;;8.30;99.90;;;;;;6183677;23;20551;-89
2023/04/12 06:39:30;;;;;;;5.18;2.10;;;8.30;99.90;;;;;;6184452;23;20027;-91
2023/04/12 06:41:56;;;;;;;6.65;1.90;;;8.30;99.90;;;;;;6186018;23;20044;-89
2023/04/12 06:44:22;;;;;;;8.18;1.90;;;8.30;99.90;;;;;;6185403;23;20096;-89
2023/04/12 06:46:47;;;;;;;5.75;1.90;;;8.40;99.90;;;;;;6184503;23;20453;-89
2023/04/12 06:49:13;;;;;;;7.40;1.85;;;8.40;99.90;;;;;;6184485;23;20441;-88
2023/04/12 06:51:39;;;;;;;5.28;1.58;;;8.40;99.90;;;;;;6183154;23;20083;-88
2023/04/12 06:54:04;;;;;;;4.78;1.70;;;8.40;99.90;;;;;;6184325;23;20020;-87
2023/04/12 06:56:30;;;;;;;6.85;2.00;;;8.40;99.90;;;;;;6183792;23;20017;-87
2023/04/12 06:58:57;;;;;;;6.63;1.90;;;8.30;99.90;;;;;;6185821;23;20036;-87
2023/04/12 07:01:29;;;;;;;7.07;2.10;;;8.40;99.90;;;;;;6184239;23;20021;-89
2023/04/12 07:03:55;;;;;;;4.80;2.00;;;8.40;99.90;;;;;;6184579;23;20369;-88
2023/04/12 07:06:21;;;;;;;6.50;1.80;;;8.40;99.90;;;;;;6184113;23;20047;-88
2023/04/12 07:08:47;;;;;;;6.97;1.95;;;8.40;99.90;;;;;;6183982;23;20028;-88
2023/04/12 07:11:13;;;;;;;5.32;1.88;;;8.40;99.90;;;;;;6183528;23;20346;-88
2023/04/12 07:13:38;;;;;;;6.05;1.90;;;8.40;99.90;;;;;;6185621;23;20024;-88
2023/04/12 07:16:04;;;;;;;5.05;1.83;;;8.40;99.90;;;;;;6184147;23;20019;-87
2023/04/12 07:18:30;;;;;;;5.60;1.63;;;8.40;99.90;;;;;;6184940;23;20020;-88
2023/04/12 07:20:57;;;;;;;5.70;2.03;;;8.40;99.90;;;;;;6185831;23;20048;-87
2023/04/12 07:23:23;;;;;;;5.40;1.83;;;8.40;99.90;;;;;;6184170;23;20025;-88
2023/04/12 07:25:48;;;;;;;5.88;2.08;;;8.40;99.90;;;;;;6184231;23;20024;-88
2023/04/12 07:28:14;;;;;;;6.22;1.85;;;8.40;99.90;;;;;;6184053;23;20092;-88
2023/04/12 07:30:40;;;;;;;3.85;1.50;;;8.50;99.90;;;;;;6185604;23;20334;-88
2023/04/12 07:33:06;;;;;;;6.10;2.00;;;8.40;99.90;;;;;;6183011;23;20017;-88
2023/04/12 07:35:33;;;;;;;3.80;1.75;;;8.50;99.90;;;;;;6184300;23;20017;-88
2023/04/12 07:38:07;;;;;;;5.30;1.80;;;8.50;99.90;;;;;;6185845;23;20020;-88
2023/04/12 07:40:33;;;;;;;5.13;1.80;;;8.40;99.90;;;;;;6182254;23;20032;-88
2023/04/12 07:42:59;;;;;;;7.78;1.90;;;8.50;99.90;;;;;;6184428;23;20013;-89
2023/04/12 07:45:25;;;;;;;7.00;1.88;;;8.50;99.90;;;;;;6183909;23;20017;-88
2023/04/12 07:47:50;;;;;;;5.60;1.70;;;8.40;99.90;;;;;;6184478;23;20387;-89
2023/04/12 07:50:16;;;;;;;7.85;1.90;;;8.50;99.90;;;;;;6185736;23;20019;-89
2023/04/12 07:52:42;;;;;;;5.82;1.80;;;8.40;99.90;;;;;;6183247;23;20438;-88
2023/04/12 07:55:08;;;;;;;6.88;1.65;;;8.50;99.90;;;;;;6183770;23;20021;-89
2023/04/12 07:57:34;;;;;;;5.85;1.70;;;8.50;99.90;;;;;;6185341;23;20013;-88
2023/04/12 08:00:00;;;;;;;5.95;1.92;;;8.50;99.90;;;;;;6187630;23;20093;-89
2023/04/12 08:02:26;;;;;;;4.10;1.88;;;8.50;99.90;;;;;;6188661;23;20025;-89
2023/04/12 08:04:52;;;;;;;5.40;1.70;;;8.50;99.90;;;;;;6188678;23;20024;-89
2023/04/12 08:07:20;;;;;;;5.03;2.05;;;8.50;99.90;;;;;;6213141;23;20405;-90
2023/04/12 08:09:47;;;;;;;4.45;1.77;;;8.50;99.90;;;;;;6218663;23;20016;-89
2023/04/12 08:12:13;;;;;;;4.28;1.77;;;8.50;99.90;;;;;;6245942;23;20016;-89
2023/04/12 08:14:38;;;;;;;5.03;1.75;;;8.50;99.90;;;;;;6243765;23;20054;-89
2023/04/12 08:17:04;;;;;;;6.85;2.35;;;8.50;99.90;;;;;;6218713;23;20121;-89
2023/04/12 08:19:30;;;;;;;7.20;3.03;;;8.50;99.90;;;;;;6219105;23;20436;-89
2023/04/12 08:21:56;;;;;;;9.20;4.90;;;8.60;99.90;;;;;;6244356;23;20008;-89
2023/04/12 08:24:22;;;;;;;5.32;2.35;;;8.60;99.90;;;;;;6218742;23;20012;-89
2023/04/12 08:26:47;;;;;;;5.57;2.13;;;8.60;99.90;;;;;;6245601;23;20444;-89
2023/04/12 08:29:13;;;;;;;6.03;2.50;;;8.60;99.90;;;;;;6218242;23;20016;-89
2023/04/12 08:31:39;;;;;;;6.82;2.65;;;8.60;99.90;;;;;;6218483;23;20019;-89
2023/04/12 08:34:05;;;;;;;4.30;2.30;;;8.60;99.90;;;;;;6218639;23;20016;-89
2023/04/12 08:36:31;;;;;;;4.75;2.38;;;8.70;99.90;;;;;;6244999;23;20012;-90
2023/04/12 08:39:00;;;;;;;5.50;2.45;;;8.70;99.90;;;;;;6218945;23;20031;-89
2023/04/12 08:41:33;;;;;;;5.25;2.58;;;8.60;99.90;;;;;;6218282;23;20055;-89
2023/04/12 08:43:59;;;;;;;6.88;3.00;;;8.70;99.90;;;;;;6244872;23;20012;-89
2023/04/12 08:46:26;;;;;;;8.35;3.75;;;8.70;99.90;;;;;;6218486;23;20016;-89
2023/04/12 08:48:57;;;;;;;6.65;3.13;;;8.70;99.90;;;;;;6245702;23;20016;-89
2023/04/12 08:51:40;;;;;;;7.10;3.55;;;8.70;99.90;;;;;;6219765;23;20044;-89
2023/04/12 08:54:06;;;;;;;5.65;3.15;;;8.70;99.90;;;;;;6220611;23;20024;-89
2023/04/12 08:56:32;;;;;;;4.90;2.72;;;8.80;99.90;;;;;;6219385;23;20035;-89
2023/04/12 08:58:59;;;;;;;6.35;2.58;;;8.70;99.90;;;;;;6220559;23;20027;-89
2023/04/12 09:01:32;;;;;;;5.63;2.70;;;8.80;99.90;;;;;;6220393;23;20043;-90
2023/04/12 09:03:57;;;;;;;5.20;3.17;;;8.80;99.90;;;;;;6220218;23;20020;-90
2023/04/12 09:06:23;;;;;;;6.15;3.42;;;8.70;99.90;;;;;;6220630;23;20276;-90
2023/04/12 09:08:53;;;;;;;5.47;3.50;;;8.80;99.90;;;;;;6247535;23;20399;-89
2023/04/12 09:11:27;;;;;;;8.77;3.63;;;8.80;99.90;;;;;;6219973;23;20046;-90
2023/04/12 09:13:54;;;;;;;6.55;3.50;;;8.80;99.90;;;;;;6220418;23;20336;-90
2023/04/12 09:16:40;;;;;;;7.22;3.25;;;8.80;99.90;;;;;;6247483;23;20020;-90
2023/04/12 09:20:03;;;;;;;4.85;3.00;;;8.80;99.90;;;;;;6246929;23;20051;-90
2023/04/12 09:22:43;;;;;;;6.55;3.63;;;8.80;99.90;;;;;;6207191;23;20070;-90
2023/04/12 09:26:23;;;;;;;5.30;3.08;;;8.90;99.90;;;;;;6228137;23;20043;-90
2023/04/12 09:29:20;;;;;;;6.00;3.80;;;8.90;99.90;;;;;;6233845;23;20492;-91
2023/04/12 09:32:01;;;;;;;7.07;4.30;;;8.90;99.90;;;;;;6246206;23;20432;-91
2023/04/12 09:34:38;;;;;;;;;;;;;;;;;;;;;
2023/04/12 09:37:42;;;;;;;7.88;4.13;;;9.00;99.90;;;;;;6247859;23;20101;-91
2023/04/12 09:40:21;;;;;;;;;;;;;;;;;;;;;
2023/04/12 09:43:15;;;;;;;8.18;3.88;;;9.10;99.90;;;;;;6220182;23;20016;-91
2023/04/12 09:45:44;;;;;;;5.78;3.70;;;9.20;99.90;;;;;;6219217;23;20437;-90
2023/04/12 09:48:44;;;;;;;6.68;3.22;;;9.20;99.90;;;;;;6247591;23;20103;-91
2023/04/12 10:06:43;;;;;;;;;;;;;;;;;;;;;
2023/04/12 10:10:16;;;;;;;;;;;;;;;;;;;;;
2023/04/12 10:28:05;;;;;;;9.90;3.47;;;9.80;99.90;;;;;;6222125;22;20035;-92
2023/04/12 10:31:44;;;;;;;8.43;3.40;;;9.80;99.90;;;;;;6154250;23;20462;-92
2023/04/12 10:41:52;;;;;;;;;;;;;;;;;;;;;
2023/04/12 10:45:44;;;;;;;;;;;;;;;;;;;;;
2023/04/12 10:49:34;;;;;;;;;;;;;;;;;;;;;
2023/04/12 11:14:48;;;;;;;;;;;;;;;;;;;;;
2023/04/12 11:24:33;;;;;;;12.60;2.58;;;11.40;99.90;;;;;;6226033;23;20394;-92
2023/04/12 11:38:55;;;;;;;16.65;2.88;;;11.50;99.90;;;;;;6184076;23;20020;-92
2023/04/12 11:43:03;;;;;;;;;;;;;;;;;;;;;
2023/04/12 11:49:43;;;;;;;;;;;;;;;;;;;;;
2023/04/12 11:53:34;;;;;;;17.42;2.92;;;11.60;99.90;;;;;;6101966;23;20355;-91
2023/04/12 12:00:52;;;;;;;17.05;2.90;;;11.60;99.90;;;;;;6008293;23;20098;-92
2023/04/12 12:08:14;;;;;;;;;;;;;;;;;;;;;
2023/04/12 12:15:20;;;;;;;;;;;;;;;;;;;;;
2023/04/12 12:21:51;;;;;;;15.48;3.00;;;12.00;96.90;;;;;;5890747;24;20063;-92
2023/04/12 12:25:48;;;;;;;19.08;3.55;;;12.10;96.90;;;;;;6072608;23;20022;-91
2023/04/12 12:29:04;;;;;;;14.95;3.00;;;12.20;96.40;;;;;;5935414;24;20021;-91
2023/04/12 12:32:14;;;;;;;;;;;;;;;;;;;;;
2023/04/12 12:34:57;;;;;;;13.93;2.00;;;12.40;95.20;;;;;;5942295;23;20486;-94
2023/04/12 12:37:52;;;;;;;14.73;2.90;;;12.40;95.20;;;;;;6077922;23;20053;-92
2023/04/12 12:41:13;;;;;;;20.20;3.25;;;12.50;94.80;;;;;;6181822;23;20020;-92
2023/04/12 12:50:15;;;;;;;13.73;2.70;;;12.70;94.00;;;;;;6214824;22;20016;-91
2023/04/12 12:53:15;;;;;;;12.10;2.10;;;12.80;93.40;;;;;;6215754;23;20028;-90
2023/04/12 12:55:43;;;;;;;11.73;2.13;;;12.80;93.60;;;;;;6203854;23;20021;-91
2023/04/12 13:01:04;;;;;;;11.73;2.08;;;12.90;92.40;;;;;;6200339;23;20400;-92
2023/04/12 13:03:55;;;;;;;15.93;2.30;;;12.90;92.50;;;;;;6212897;23;20020;-92
2023/04/12 13:09:16;;;;;;;15.10;3.05;;;12.90;92.00;;;;;;6194596;22;20032;-92
2023/04/12 13:11:45;;;;;;;10.85;2.08;;;12.90;92.00;;;;;;6213747;23;20028;-93
2023/04/12 13:14:35;;;;;;;16.40;3.10;;;12.90;92.00;;;;;;6214528;23;20067;-92
2023/04/12 13:19:56;;;;;;;13.13;2.08;;;12.90;92.20;;;;;;6223124;22;20083;-94
2023/04/12 13:22:29;;;;;;;14.27;2.25;;;12.90;91.90;;;;;;6213803;23;20099;-91
2023/04/12 13:25:07;;;;;;;;;;;;;;;;;;;;;
2023/04/12 13:33:46;;;;;;;8.52;1.73;;;12.90;92.70;;;;;;6215406;22;20020;-94
2023/04/12 13:36:15;;;;;;;10.73;2.28;;;12.90;92.80;;;;;;6215573;23;20052;-93
2023/04/12 13:38:40;;;;;;;13.00;2.03;;;12.90;92.60;;;;;;6214509;22;20027;-93
2023/04/12 13:41:31;;;;;;;14.00;2.35;;;12.80;92.60;;;;;;6216365;23;20104;-92
2023/04/12 13:44:26;;;;;;;;;;;12.90;91.80;;;;;;6218160;23;20025;-91
2023/04/12 13:46:51;;;;;;;13.13;2.33;;;12.80;91.10;;;;;;6216154;23;20329;-92
2023/04/12 13:49:43;;;;;;;12.70;2.15;;;12.80;92.20;;;;;;6215604;23;20020;-91
2023/04/12 13:52:11;;;;;;;14.60;2.42;;;12.80;91.60;;;;;;6204605;23;20016;-92
2023/04/12 13:54:37;;;;;;;12.40;2.10;;;12.80;91.40;;;;;;6215692;23;20139;-92
2023/04/12 13:57:03;;;;;;;11.82;2.28;;;12.80;91.40;;;;;;6217916;23;20071;-91
2023/04/12 14:00:12;;;;;;;13.10;2.28;;;12.80;91.50;;;;;;6216453;23;20020;-92
2023/04/12 14:06:11;;;;;;;15.23;3.43;;;12.70;92.00;;;;;;6216372;23;20100;-91
2023/04/12 14:12:24;;;;;;;32.95;14.40;;;12.70;91.90;;;;;;6184955;23;20103;-91
2023/04/12 14:18:02;;;;;;;;;;;;;;;;;;;;;
2023/04/12 14:21:04;;;;;;;11.60;2.20;;;12.60;91.00;;;;;;6215168;23;20020;-91
2023/04/12 14:23:32;;;;;;;13.27;2.80;;;12.60;90.50;;;;;;6215358;23;20066;-91
2023/04/12 14:26:49;;;;;;;12.88;2.50;;;12.60;92.20;;;;;;6154674;23;20125;-91
2023/04/12 14:29:18;;;;;;;10.57;2.17;;;12.60;93.00;;;;;;6129807;23;20018;-91
2023/04/12 14:32:08;;;;;;;11.07;2.00;;;12.60;94.00;;;;;;6127923;23;20022;-92
2023/04/12 14:35:03;;;;;;;11.00;2.13;;;12.60;93.40;;;;;;6153214;23;20343;-92
2023/04/12 14:41:32;;;;;;;;;;;;;;;;;;;;;
2023/04/12 14:44:22;;;;;;;7.13;1.90;;;12.60;93.50;;;;;;6023458;23;20445;-92
2023/04/12 14:50:08;;;;;;;10.90;2.35;;;12.60;91.50;;;;;;6070309;23;20470;-91
2023/04/12 14:52:40;;;;;;;10.52;2.03;;;12.60;92.40;;;;;;6087940;23;20477;-92
2023/04/12 14:55:21;;;;;;;;;;;;;;;;;;;;;
2023/04/12 14:58:38;;;;;;;;;;;;;;;;;;;;;
2023/04/12 15:01:41;;;;;;;12.82;2.30;;;12.60;91.30;;;;;;6123387;23;20052;-92
2023/04/12 15:04:29;;;;;;;8.70;2.15;;;12.70;91.90;;;;;;6160686;23;20020;-91
2023/04/12 15:07:17;;;;;;;10.13;2.28;;;12.70;92.10;;;;;;6216579;23;20437;-92
2023/04/12 15:09:43;;;;;;;12.43;2.30;;;12.80;92.00;;;;;;6200822;23;20031;-92
2023/04/12 15:12:32;;;;;;;14.25;2.42;;;12.70;92.40;;;;;;6216695;23;20021;-91
2023/04/12 15:15:02;;;;;;;8.10;2.10;;;12.70;91.60;;;;;;6201126;23;20081;-94
2023/04/12 15:17:36;;;;;;;8.02;1.92;;;12.60;92.50;;;;;;6214735;23;20023;-92
2023/04/12 15:20:23;;;;;;;9.35;1.95;;;12.50;92.60;;;;;;6241578;22;20376;-92
2023/04/12 15:23:22;;;;;;;9.80;2.22;;;12.40;92.90;;;;;;6218761;23;20477;-90
2023/04/12 15:25:48;;;;;;;9.98;2.17;;;12.30;93.00;;;;;;6178463;23;20035;-91
2023/04/12 15:28:14;;;;;;;6.30;1.50;;;12.30;94.20;;;;;;6247007;23;20428;-93
2023/04/12 15:30:40;;;;;;;10.15;1.90;;;12.30;93.60;;;;;;6218853;23;20019;-92
2023/04/12 15:33:08;;;;;;;6.43;1.58;;;12.20;94.00;;;;;;6246958;23;20012;-90
2023/04/12 15:38:30;;;;;;;7.80;1.70;;;12.20;96.30;;;;;;6219003;23;20051;-92
2023/04/12 15:41:14;;;;;;;9.18;1.80;;;12.20;97.00;;;;;;6219601;23;20020;-92
2023/04/12 15:43:42;;;;;;;8.55;1.85;;;12.30;96.90;;;;;;6246255;23;20012;-91
2023/04/12 15:50:04;;;;;;;;;;;;;;;;;;;;;
2023/04/12 15:56:38;;;;;;;;;;;;;;;;;;;;;
2023/04/12 15:59:58;;;;;;;;;;;;;;;;;;;;;
2023/04/12 16:05:57;;;;;;;6.70;1.90;;;12.50;98.60;;;;;;6239179;22;20027;-91
2023/04/12 16:12:25;;;;;;;6.38;1.40;;;12.70;99.90;;;;;;6152089;23;20081;-91
2023/04/12 16:18:39;;;;;;;;;;;;;;;;;;;;;
2023/04/12 16:22:04;;;;;;;6.90;1.30;;;12.80;99.90;;;;;;6219332;22;20033;-92
2023/04/12 16:28:41;;;;;;;;;;;;;;;;;;;;;
2023/04/12 16:32:16;;;;;;;10.43;1.55;;;12.80;99.90;;;;;;6107014;23;20041;-91
2023/04/12 16:43:18;;;;;;;;;;;;;;;;;;;;;
2023/04/12 16:51:20;;;;;;;9.27;1.85;;;12.60;98.60;;;;;;6008577;23;20370;-90
2023/04/12 16:58:04;;;;;;;11.98;2.30;;;12.50;99.50;;;;;;5897858;24;20108;-91
2023/04/12 17:07:13;;;;;;;12.95;2.15;;;12.40;98.90;;;;;;6214434;22;20025;-91